Time;durP1;ratioP1;P1;durP2;ratioP2;P2;SDS_P1;SDS_P2;PMS_P1;PMS_P2;Temp;Humidity;BMP_temperature;BMP_pressure;BME280_temperature;BME280_humidity;BME280_pressure;Samples;Min_cycle;Max_cycle;Signal;HPM_P1;HPM_P2
2023/11/23 00:02:01;;;;;;;34.60;19.80;;;;;;;-2.91;68.22;100620.52;101739;1254;1003042;-70
2023/11/23 00:04:27;;;;;;;34.00;20.50;;;;;;;-2.91;68.41;100602.66;103635;1254;96273;-70
2023/11/23 00:06:54;;;;;;;35.70;20.50;;;;;;;-2.89;68.52;100597.27;103263;1259;1002894;-70
2023/11/23 00:09:21;;;;;;;35.50;20.80;;;;;;;-2.87;68.50;100593.58;103326;1254;107088;-71
2023/11/23 00:11:47;;;;;;;34.30;20.70;;;;;;;-2.85;68.60;100589.74;103904;1256;97813;-71
2023/11/23 00:14:14;;;;;;;38.10;21.70;;;;;;;-2.81;68.40;100583.04;103249;1256;138281;-71
2023/11/23 00:16:43;;;;;;;35.10;20.80;;;;;;;-2.81;68.66;100564.84;103900;1255;97809;-71
2023/11/23 00:19:10;;;;;;;36.00;22.20;;;;;;;-2.81;68.50;100559.41;103628;1256;138322;-70
2023/11/23 00:21:37;;;;;;;39.90;22.20;;;;;;;-2.83;69.08;100550.34;102577;1256;1003052;-70
2023/11/23 00:24:04;;;;;;;34.00;20.60;;;;;;;-2.88;68.93;100548.31;103457;1254;97805;-71
2023/11/23 00:26:33;;;;;;;39.30;21.10;;;;;;;-2.88;69.10;100555.62;103505;1257;139085;-70
2023/11/23 00:29:00;;;;;;;36.90;20.10;;;;;;;-2.90;69.22;100545.69;102536;1254;1003415;-70
2023/11/23 00:31:27;;;;;;;36.70;19.90;;;;;;;-2.82;69.57;100546.42;103348;1255;138955;-70
2023/11/23 00:33:54;;;;;;;35.20;21.90;;;;;;;-2.76;69.57;100545.05;103545;1258;107821;-70
2023/11/23 00:36:21;;;;;;;34.40;20.80;;;;;;;-2.69;69.57;100541.67;103379;1256;98273;-70
2023/11/23 00:38:48;;;;;;;36.80;21.50;;;;;;;-2.63;69.47;100540.46;103167;1256;137820;-70
2023/11/23 00:41:15;;;;;;;39.40;22.30;;;;;;;-2.60;69.14;100544.62;103990;1259;97836;-70
2023/11/23 00:43:42;;;;;;;34.80;22.80;;;;;;;-2.62;69.36;100527.55;103210;1256;138420;-69
2023/11/23 00:46:10;;;;;;;38.70;22.40;;;;;;;-2.64;69.42;100528.35;102661;1258;1002952;-70
2023/11/23 00:48:37;;;;;;;36.70;22.80;;;;;;;-2.63;69.01;100516.80;103788;1256;95640;-71
2023/11/23 00:51:04;;;;;;;37.00;22.30;;;;;;;-2.60;69.52;100510.05;102516;1258;1003412;-70
2023/11/23 00:53:32;;;;;;;38.10;22.70;;;;;;;-2.63;69.37;100503.54;102594;1257;1003089;-71
2023/11/23 00:55:59;;;;;;;38.40;21.30;;;;;;;-2.68;69.61;100492.34;102382;1254;1003033;-70
2023/11/23 00:58:26;;;;;;;32.70;19.90;;;;;;;-2.71;69.52;100500.26;103264;1259;107561;-71
2023/11/23 01:00:53;;;;;;;33.00;19.50;;;;;;;-2.70;69.55;100488.00;103466;1257;139038;-69
2023/11/23 01:03:20;;;;;;;34.00;19.10;;;;;;;-2.70;69.76;100482.73;103383;1257;106389;-70
2023/11/23 01:05:47;;;;;;;36.10;21.30;;;;;;;-2.69;69.79;100495.87;103659;1254;97836;-70
2023/11/23 01:08:15;;;;;;;36.40;21.80;;;;;;;-2.64;69.97;100491.06;104010;1257;137785;-71
2023/11/23 01:10:42;;;;;;;36.40;22.00;;;;;;;-2.61;69.83;100491.14;102487;1256;1003450;-70
2023/11/23 01:13:09;;;;;;;37.00;22.70;;;;;;;-2.60;70.06;100495.77;102334;1257;1003372;-70
2023/11/23 01:15:36;;;;;;;40.60;22.60;;;;;;;-2.61;69.85;100488.42;103367;1253;107285;-72
2023/11/23 01:18:03;;;;;;;36.30;22.60;;;;;;;-2.62;69.71;100478.70;103278;1254;98379;-70
2023/11/23 01:20:30;;;;;;;37.70;22.10;;;;;;;-2.62;69.95;100475.45;103082;1257;1003331;-71
2023/11/23 01:22:57;;;;;;;40.10;22.90;;;;;;;-2.66;70.02;100470.27;103854;1258;107517;-70
2023/11/23 01:25:23;;;;;;;34.70;21.70;;;;;;;-2.68;69.99;100469.55;103103;1256;139772;-70
2023/11/23 01:27:50;;;;;;;33.70;21.00;;;;;;;-2.73;70.17;100466.16;103322;1259;108196;-70
2023/11/23 01:30:17;;;;;;;38.50;21.50;;;;;;;-2.75;70.20;100465.10;103097;1254;1003367;-72
2023/11/23 01:32:44;;;;;;;31.10;19.60;;;;;;;-2.74;70.42;100466.48;103765;1254;1002520;-68
2023/11/23 01:35:12;;;;;;;33.70;19.30;;;;;;;-2.71;70.34;100460.07;103655;1257;108445;-69
2023/11/23 01:37:39;;;;;;;30.20;18.20;;;;;;;-2.69;70.50;100448.39;101976;1256;1002875;-69
2023/11/23 01:40:08;;;;;;;32.20;19.90;;;;;;;-2.65;70.40;100436.06;103598;1256;107382;-69
2023/11/23 01:42:35;;;;;;;32.30;20.70;;;;;;;-2.59;70.64;100436.05;103361;1259;97685;-68
2023/11/23 01:45:02;;;;;;;34.20;21.00;;;;;;;-2.54;70.61;100422.03;103490;1259;138221;-69
2023/11/23 01:47:31;;;;;;;33.50;20.80;;;;;;;-2.55;70.54;100414.86;103333;1255;107526;-70
2023/11/23 01:50:03;;;;;;;34.20;20.90;;;;;;;-2.56;70.51;100399.67;103476;1254;138161;-70
2023/11/23 01:52:30;;;;;;;32.00;20.60;;;;;;;-2.60;70.80;100385.46;103134;1254;1002623;-70
2023/11/23 01:54:57;;;;;;;34.70;21.20;;;;;;;-2.66;70.48;100372.23;103379;1256;138424;-69
2023/11/23 01:57:25;;;;;;;33.00;21.30;;;;;;;-2.68;70.70;100362.48;103566;1257;112072;-69
2023/11/23 01:59:52;;;;;;;32.90;21.20;;;;;;;-2.72;70.77;100347.73;103816;1256;108632;-69
2023/11/23 02:02:19;;;;;;;35.00;19.60;;;;;;;-2.78;71.39;100338.06;103684;1255;138298;-69
2023/11/23 02:04:46;;;;;;;31.00;19.00;;;;;;;-2.85;71.66;100321.23;104270;1256;107850;-70
2023/11/23 02:07:13;;;;;;;28.20;17.90;;;;;;;-2.89;71.88;100310.77;103421;1259;139410;-70
2023/11/23 02:09:40;;;;;;;27.10;18.00;;;;;;;-2.90;71.87;100314.48;102737;1254;1003671;-70
2023/11/23 02:12:09;;;;;;;30.00;18.90;;;;;;;-2.87;72.05;100319.80;104050;1258;106344;-70
2023/11/23 02:14:37;;;;;;;32.40;19.60;;;;;;;-2.85;72.28;100320.56;104135;1256;140353;-70
2023/11/23 02:17:17;;;;;;;32.50;20.80;;;;;;;-2.85;72.46;100329.94;103236;1254;107560;-70
2023/11/23 02:19:46;;;;;;;34.90;21.40;;;;;;;-2.83;71.97;100338.48;103189;1254;138625;-70
2023/11/23 02:22:13;;;;;;;36.10;22.40;;;;;;;-2.78;72.48;100329.23;102665;1255;1003516;-69
2023/11/23 02:24:40;;;;;;;32.80;22.00;;;;;;;-2.76;72.09;100316.84;102461;1258;1003820;-69
2023/11/23 02:27:08;;;;;;;34.20;22.60;;;;;;;-2.76;72.16;100298.48;102583;1259;1003576;-69
2023/11/23 02:29:35;;;;;;;34.70;21.70;;;;;;;-2.79;72.44;100283.77;103275;1256;107784;-69
2023/11/23 02:32:07;;;;;;;32.70;20.90;;;;;;;-2.81;72.63;100278.64;103184;1257;138856;-69
2023/11/23 02:34:34;;;;;;;33.80;20.40;;;;;;;-2.79;72.76;100281.39;103418;1260;111363;-69
2023/11/23 02:37:00;;;;;;;31.50;19.90;;;;;;;-2.78;72.90;100287.88;103310;1258;138989;-69
2023/11/23 02:39:27;;;;;;;34.30;21.50;;;;;;;-2.75;72.43;100278.75;102642;1256;1002766;-69
2023/11/23 02:41:55;;;;;;;35.30;22.80;;;;;;;-2.72;73.03;100274.04;102478;1257;1003199;-69
2023/11/23 02:44:22;;;;;;;35.70;22.40;;;;;;;-2.72;73.03;100278.63;103286;1259;138366;-69
2023/11/23 02:46:49;;;;;;;36.50;23.30;;;;;;;-2.71;73.41;100269.13;103380;1254;112068;-68
2023/11/23 02:49:18;;;;;;;37.30;22.90;;;;;;;-2.76;73.33;100257.12;101719;1256;1002842;-69
2023/11/23 02:51:45;;;;;;;37.00;23.90;;;;;;;-2.76;73.14;100251.00;103371;1259;99007;-69
2023/11/23 02:54:12;;;;;;;41.30;24.70;;;;;;;-2.76;73.51;100246.23;103323;1254;107749;-69
2023/11/23 02:56:39;;;;;;;37.10;22.50;;;;;;;-2.80;73.72;100238.66;102386;1260;1002366;-70
2023/11/23 02:59:07;;;;;;;35.10;22.20;;;;;;;-2.80;73.59;100233.73;103318;1254;110621;-70
2023/11/23 03:01:35;;;;;;;34.20;20.70;;;;;;;-2.77;73.66;100221.20;103393;1259;139094;-70
2023/11/23 03:04:04;;;;;;;36.80;20.90;;;;;;;-2.75;74.42;100214.08;102612;1257;1003378;-70
2023/11/23 03:06:31;;;;;;;33.50;22.20;;;;;;;-2.74;74.32;100210.18;103273;1256;107766;-70
2023/11/23 03:08:58;;;;;;;37.10;23.60;;;;;;;-2.73;74.51;100203.90;102482;1259;1002588;-71
2023/11/23 03:11:26;;;;;;;36.50;23.90;;;;;;;-2.71;74.51;100191.70;103358;1256;110950;-70
2023/11/23 03:13:53;;;;;;;35.20;23.80;;;;;;;-2.70;74.14;100177.92;103223;1254;138143;-70
2023/11/23 03:16:20;;;;;;;39.50;24.40;;;;;;;-2.68;74.38;100158.75;103223;1260;97704;-70
2023/11/23 03:18:47;;;;;;;38.30;25.00;;;;;;;-2.71;74.66;100143.02;102373;1256;1003037;-70
2023/11/23 03:21:14;;;;;;;39.40;24.10;;;;;;;-2.72;74.74;100132.27;102597;1254;1003208;-70
2023/11/23 03:23:45;;;;;;;35.80;21.40;;;;;;;-2.73;74.84;100128.01;102613;1256;1003029;-69
2023/11/23 03:26:12;;;;;;;33.00;21.00;;;;;;;-2.71;74.83;100113.77;103125;1259;139889;-70
2023/11/23 03:28:39;;;;;;;33.50;21.80;;;;;;;-2.67;74.89;100097.35;102628;1258;1003050;-70
2023/11/23 03:31:07;;;;;;;34.20;22.10;;;;;;;-2.67;75.19;100092.73;102382;1258;1003084;-70
2023/11/23 03:33:34;;;;;;;34.90;23.90;;;;;;;-2.59;75.43;100091.52;103930;1256;96394;-70
2023/11/23 03:36:01;;;;;;;38.10;23.70;;;;;;;-2.55;75.32;100078.64;103248;1254;111813;-70
2023/11/23 03:38:28;;;;;;;38.20;24.90;;;;;;;-2.56;75.68;100069.62;103164;1256;138083;-70
2023/11/23 03:40:57;;;;;;;39.60;25.60;;;;;;;-2.57;75.74;100067.55;103258;1259;97695;-70
2023/11/23 03:43:25;;;;;;;36.00;23.00;;;;;;;-2.63;75.82;100057.08;103252;1259;138253;-70
2023/11/23 03:45:51;;;;;;;35.40;22.20;;;;;;;-2.61;75.96;100047.23;103281;1259;97795;-69
2023/11/23 03:48:18;;;;;;;36.50;22.20;;;;;;;-2.59;76.17;100048.29;103301;1256;110837;-69
2023/11/23 03:50:46;;;;;;;34.70;21.10;;;;;;;-2.54;76.17;100036.28;103232;1259;138683;-69
2023/11/23 03:53:13;;;;;;;31.90;21.20;;;;;;;-2.47;76.22;100023.65;103336;1256;97799;-70
2023/11/23 03:55:40;;;;;;;36.30;22.60;;;;;;;-2.42;76.03;100002.45;103251;1259;139372;-69
2023/11/23 03:58:06;;;;;;;36.20;23.00;;;;;;;-2.34;76.43;99992.52;102565;1258;1003076;-70
2023/11/23 04:00:34;;;;;;;38.20;24.10;;;;;;;-2.33;76.37;99985.05;103370;1255;110902;-72
2023/11/23 04:03:01;;;;;;;35.50;24.90;;;;;;;-2.33;76.10;99972.96;104002;1258;137611;-71
2023/11/23 04:05:28;;;;;;;40.40;24.30;;;;;;;-2.30;76.63;99970.80;103419;1255;97669;-71
2023/11/23 04:07:55;;;;;;;39.30;25.20;;;;;;;-2.29;76.76;99977.45;103195;1259;137627;-71
2023/11/23 04:10:22;;;;;;;40.80;25.50;;;;;;;-2.27;76.61;99959.95;103284;1259;97684;-71
2023/11/23 04:12:49;;;;;;;36.80;24.20;;;;;;;-2.26;76.88;99956.71;103200;1258;138100;-70
2023/11/23 04:15:17;;;;;;;35.10;22.80;;;;;;;-2.26;77.08;99949.23;103910;1258;107961;-70
2023/11/23 04:17:45;;;;;;;38.10;23.40;;;;;;;-2.24;76.84;99934.95;103286;1257;97786;-70
2023/11/23 04:20:13;;;;;;;34.10;22.30;;;;;;;-2.19;77.16;99923.42;103184;1258;138485;-70
2023/11/23 04:22:39;;;;;;;34.70;22.00;;;;;;;-2.16;77.11;99914.80;103393;1257;98046;-70
2023/11/23 04:25:08;;;;;;;32.40;21.20;;;;;;;-2.08;77.12;99910.98;103246;1258;139077;-70
2023/11/23 04:27:35;;;;;;;32.00;21.30;;;;;;;-2.03;77.47;99896.05;103456;1258;107886;-70
2023/11/23 04:30:02;;;;;;;35.50;21.50;;;;;;;-1.98;77.21;99885.55;103272;1257;97663;-70
2023/11/23 04:32:31;;;;;;;36.30;23.00;;;;;;;-1.92;77.36;99877.63;103132;1258;137827;-69
2023/11/23 04:34:58;;;;;;;36.20;23.70;;;;;;;-1.90;77.13;99865.39;102510;1258;1002500;-70
2023/11/23 04:37:25;;;;;;;33.90;22.70;;;;;;;-1.85;77.26;99857.08;102454;1259;1003104;-70
2023/11/23 04:39:52;;;;;;;36.20;24.60;;;;;;;-1.84;77.35;99855.39;103315;1259;108353;-70
2023/11/23 04:42:19;;;;;;;37.30;23.50;;;;;;;-1.83;77.09;99847.56;103292;1254;98244;-69
2023/11/23 04:44:46;;;;;;;35.90;22.90;;;;;;;-1.83;77.25;99838.36;102383;1256;1002852;-71
2023/11/23 04:47:13;;;;;;;33.80;22.40;;;;;;;-1.82;77.11;99839.90;103281;1259;97793;-71
2023/11/23 04:49:40;;;;;;;35.20;21.50;;;;;;;-1.79;77.59;99821.04;102536;1259;1003996;-71
2023/11/23 04:52:08;;;;;;;34.70;21.00;;;;;;;-1.76;77.59;99811.35;103276;1259;108356;-70
2023/11/23 04:54:35;;;;;;;34.60;20.20;;;;;;;-1.71;78.06;99809.01;103602;1256;98328;-70
2023/11/23 04:57:02;;;;;;;31.30;20.20;;;;;;;-1.67;77.76;99799.16;103148;1258;138482;-70
2023/11/23 04:59:29;;;;;;;31.00;21.10;;;;;;;-1.60;77.75;99796.00;103338;1254;97780;-71
2023/11/23 05:01:56;;;;;;;32.70;22.00;;;;;;;-1.55;77.98;99801.16;102432;1256;1003402;-71
2023/11/23 05:04:23;;;;;;;35.20;22.00;;;;;;;-1.53;77.81;99787.55;103312;1259;108394;-71
2023/11/23 05:06:51;;;;;;;35.80;23.00;;;;;;;-1.48;77.72;99771.55;103148;1257;138877;-70
2023/11/23 05:09:18;;;;;;;37.10;24.20;;;;;;;-1.45;78.07;99754.18;103335;1259;107826;-70
2023/11/23 05:11:46;;;;;;;34.10;21.30;;;;;;;-1.45;78.05;99763.23;103285;1255;97787;-70
2023/11/23 05:14:12;;;;;;;29.30;19.50;;;;;;;-1.43;78.23;99761.70;103193;1254;138492;-70
2023/11/23 05:16:39;;;;;;;27.70;19.20;;;;;;;-1.40;78.24;99750.66;102543;1254;1002897;-70
2023/11/23 05:19:06;;;;;;;30.60;19.30;;;;;;;-1.35;78.27;99753.60;102409;1260;1002976;-70
2023/11/23 05:21:33;;;;;;;36.30;22.50;;;;;;;-1.32;78.37;99739.96;102556;1259;1003480;-70
2023/11/23 05:24:00;;;;;;;33.70;23.00;;;;;;;-1.27;78.76;99737.95;103305;1255;97842;-71
2023/11/23 05:26:30;;;;;;;32.70;21.80;;;;;;;-1.23;78.62;99724.70;103200;1259;137669;-70
2023/11/23 05:28:57;;;;;;;36.00;22.90;;;;;;;-1.17;78.75;99713.13;103247;1254;108470;-70
2023/11/23 05:31:23;;;;;;;35.50;22.90;;;;;;;-1.15;79.06;99710.75;103209;1254;138091;-70
2023/11/23 05:33:50;;;;;;;38.00;22.80;;;;;;;-1.16;79.26;99710.05;102522;1256;1003295;-70
2023/11/23 05:36:17;;;;;;;31.00;20.50;;;;;;;-1.16;79.48;99677.30;101754;1255;1015958;-69
2023/11/23 05:38:44;;;;;;;32.30;19.30;;;;;;;-1.15;79.54;99661.78;102464;1259;1003346;-72
2023/11/23 05:41:11;;;;;;;31.30;20.20;;;;;;;-1.16;79.82;99644.90;102538;1254;1003402;-71
2023/11/23 05:43:38;;;;;;;28.00;19.10;;;;;;;-1.13;80.19;99651.55;102388;1254;1002537;-71
2023/11/23 05:46:05;;;;;;;36.40;20.90;;;;;;;-1.08;80.41;99645.96;102508;1254;1003471;-71
2023/11/23 05:48:31;;;;;;;32.00;21.20;;;;;;;-1.05;80.62;99634.22;103352;1258;97777;-71
2023/11/23 05:50:58;;;;;;;32.80;21.70;;;;;;;-1.01;80.42;99633.55;103219;1257;137716;-70
2023/11/23 05:53:25;;;;;;;33.30;22.90;;;;;;;-1.00;80.80;99635.60;103394;1254;108277;-71
2023/11/23 05:55:52;;;;;;;34.20;21.30;;;;;;;-0.98;80.94;99629.12;103229;1258;137999;-71
2023/11/23 05:58:18;;;;;;;32.30;19.90;;;;;;;-0.99;81.52;99617.85;102486;1259;1003077;-70
2023/11/23 06:00:45;;;;;;;30.00;19.20;;;;;;;-0.98;81.45;99610.52;101628;1259;1003309;-69
2023/11/23 06:03:17;;;;;;;29.70;18.80;;;;;;;-0.95;81.67;99595.34;102498;1258;1002880;-70
2023/11/23 06:05:49;;;;;;;27.80;18.60;;;;;;;-0.92;81.60;99590.56;103249;1257;107242;-70
2023/11/23 06:08:16;;;;;;;31.90;19.80;;;;;;;-0.87;81.78;99584.28;103254;1259;138221;-70
2023/11/23 06:10:43;;;;;;;29.20;20.10;;;;;;;-0.85;81.43;99583.09;103371;1260;108431;-70
2023/11/23 06:13:09;;;;;;;30.60;20.70;;;;;;;-0.85;81.94;99578.32;101743;1259;1003199;-71
2023/11/23 06:15:36;;;;;;;33.70;21.10;;;;;;;-0.83;81.87;99575.59;102582;1259;1003171;-69
2023/11/23 06:18:03;;;;;;;32.90;19.60;;;;;;;-0.85;82.10;99575.08;103420;1259;108798;-70
2023/11/23 06:20:38;;;;;;;;;;;;;;;-0.84;82.26;99560.23;102614;1257;1003479;-69
2023/11/23 06:23:05;;;;;;;28.90;17.80;;;;;;;-0.82;82.27;99558.69;102550;1258;1002818;-69
2023/11/23 06:25:32;;;;;;;29.50;17.80;;;;;;;-0.79;82.62;99546.06;103247;1257;138675;-69
2023/11/23 06:27:59;;;;;;;25.70;17.70;;;;;;;-0.76;82.71;99544.19;103382;1259;110896;-70
2023/11/23 06:30:41;;;;;;;31.50;19.50;;;;;;;-0.70;82.63;99536.71;103627;1256;107763;-70
2023/11/23 06:33:08;;;;;;;29.00;18.60;;;;;;;-0.64;82.70;99541.84;103380;1255;98091;-71
2023/11/23 06:35:35;;;;;;;31.50;20.70;;;;;;;-0.58;82.76;99543.54;104472;1259;108961;-71
2023/11/23 06:38:02;;;;;;;30.70;20.10;;;;;;;-0.54;82.57;99544.41;103342;1260;138665;-69
2023/11/23 06:40:29;;;;;;;31.40;19.30;;;;;;;-0.52;82.68;99541.35;102930;1254;1002976;-70
2023/11/23 06:42:56;;;;;;;27.90;17.70;;;;;;;-0.49;82.50;99537.59;103241;1257;1002573;-73
2023/11/23 06:45:23;;;;;;;26.10;16.40;;;;;;;-0.47;82.78;99525.81;104005;1255;99107;-70
2023/11/23 06:47:50;;;;;;;27.10;17.60;;;;;;;-0.38;82.82;99536.90;102902;1259;1003445;-71
2023/11/23 06:50:18;;;;;;;27.80;18.70;;;;;;;-0.33;83.01;99524.96;103202;1258;138503;-69
2023/11/23 06:52:45;;;;;;;32.00;20.20;;;;;;;-0.29;83.32;99523.93;103378;1254;110217;-70
2023/11/23 06:55:13;;;;;;;31.20;19.60;;;;;;;-0.29;83.50;99515.56;101889;1254;1003784;-70
2023/11/23 06:57:46;;;;;;;27.90;18.10;;;;;;;-0.29;83.86;99508.22;102243;1259;1003503;-69
2023/11/23 07:00:22;;;;;;;25.80;17.40;;;;;;;-0.29;84.04;99495.40;102496;1254;1003295;-70
2023/11/23 07:02:49;;;;;;;28.50;17.70;;;;;;;-0.28;84.61;99487.38;103508;1254;140362;-69
2023/11/23 07:05:16;;;;;;;24.40;16.30;;;;;;;-0.26;84.89;99482.94;103195;1258;110595;-70
2023/11/23 07:07:44;;;;;;;29.90;18.10;;;;;;;-0.28;85.58;99470.30;103144;1258;139121;-69
2023/11/23 07:10:12;;;;;;;28.20;17.80;;;;;;;-0.27;86.18;99479.52;103493;1260;97851;-69
2023/11/23 07:12:42;;;;;;;27.30;17.10;;;;;;;-0.24;86.70;99466.52;103307;1254;107859;-69
2023/11/23 07:15:12;;;;;;;31.30;17.70;;;;;;;-0.22;86.61;99463.10;103129;1254;159984;-69
2023/11/23 07:17:39;;;;;;;27.20;17.90;;;;;;;-0.19;87.08;99454.20;103693;1254;110355;-70
2023/11/23 07:20:12;;;;;;;26.20;17.10;;;;;;;-0.17;87.48;99451.16;102992;1257;139125;-68
2023/11/23 07:22:39;;;;;;;25.20;15.90;;;;;;;-0.16;87.62;99440.05;103330;1254;97986;-68
2023/11/23 07:25:09;;;;;;;26.10;16.60;;;;;;;-0.13;87.99;99437.64;103014;1254;138826;-68
2023/11/23 07:27:37;;;;;;;26.70;15.90;;;;;;;-0.11;88.19;99445.67;103833;1254;97921;-68
2023/11/23 07:30:06;;;;;;;23.80;14.80;;;;;;;-0.10;88.23;99430.96;103553;1254;111172;-69
2023/11/23 07:32:33;;;;;;;25.40;15.40;;;;;;;-0.01;88.41;99428.21;103825;1254;139698;-69
2023/11/23 07:35:00;;;;;;;22.50;14.40;;;;;;;0.04;88.79;99420.70;103225;1254;98046;-69
2023/11/23 07:37:28;;;;;;;24.10;15.00;;;;;;;0.10;88.69;99422.55;103608;1254;138092;-70
2023/11/23 07:39:56;;;;;;;22.60;15.20;;;;;;;0.11;88.83;99417.40;103367;1254;97895;-70
2023/11/23 07:42:25;;;;;;;26.20;16.40;;;;;;;0.13;89.34;99413.64;102530;1257;1003354;-69
2023/11/23 07:44:52;;;;;;;22.90;15.80;;;;;;;0.11;89.17;99411.42;104133;1254;139430;-70
2023/11/23 07:47:19;;;;;;;23.00;14.30;;;;;;;0.11;89.58;99407.16;104040;1255;97683;-70
2023/11/23 07:49:46;;;;;;;22.30;14.50;;;;;;;0.10;89.97;99393.66;103634;1257;138239;-70
2023/11/23 07:52:14;;;;;;;24.10;14.70;;;;;;;0.11;90.45;99396.73;103367;1259;97685;-69
2023/11/23 07:54:40;;;;;;;22.80;14.90;;;;;;;0.10;90.83;99384.77;103228;1254;110700;-69
2023/11/23 07:57:07;;;;;;;23.60;14.30;;;;;;;0.11;90.96;99386.64;103135;1254;138356;-70
2023/11/23 07:59:36;;;;;;;23.30;13.80;;;;;;;0.12;91.03;99386.12;102136;1254;1003190;-71
2023/11/23 08:02:04;;;;;;;22.30;13.60;;;;;;;0.16;91.32;99391.40;103536;1257;138535;-68
2023/11/23 08:04:31;;;;;;;22.90;13.70;;;;;;;0.18;91.38;99376.70;103139;1257;97883;-70
2023/11/23 08:06:58;;;;;;;21.10;13.30;;;;;;;0.23;91.31;99364.38;102419;1254;1003040;-70
2023/11/23 08:09:30;;;;;;;19.70;12.40;;;;;;;0.26;91.33;99360.59;102505;1254;1003326;-70
2023/11/23 08:11:57;;;;;;;17.70;11.60;;;;;;;0.34;91.47;99349.60;103132;1259;97666;-71
2023/11/23 08:14:24;;;;;;;17.40;11.60;;;;;;;0.41;91.70;99334.36;103134;1257;138939;-70
2023/11/23 08:16:51;;;;;;;19.00;12.70;;;;;;;0.43;91.90;99337.08;103236;1254;98051;-70
2023/11/23 08:19:18;;;;;;;20.40;13.00;;;;;;;0.46;91.62;99336.55;102431;1254;1003338;-70
2023/11/23 08:21:46;;;;;;;22.70;13.00;;;;;;;0.46;91.66;99344.75;101749;1254;1003437;-70
2023/11/23 08:24:16;;;;;;;17.80;11.80;;;;;;;0.45;91.59;99338.42;102521;1259;1004137;-71
2023/11/23 08:26:44;;;;;;;18.10;11.60;;;;;;;0.47;91.64;99336.20;103136;1258;138584;-70
2023/11/23 08:29:11;;;;;;;17.50;11.10;;;;;;;0.50;92.27;99335.31;103245;1254;97695;-71
2023/11/23 08:31:39;;;;;;;19.40;11.20;;;;;;;0.52;92.30;99338.20;103177;1257;138938;-69
2023/11/23 08:34:07;;;;;;;17.90;11.10;;;;;;;0.56;92.41;99342.48;103082;1254;108443;-70
2023/11/23 08:36:35;;;;;;;17.40;10.50;;;;;;;0.60;92.51;99328.94;104426;1259;95975;-71
2023/11/23 08:39:03;;;;;;;15.10;10.20;;;;;;;0.64;92.81;99325.14;103073;1257;138008;-70
2023/11/23 08:41:30;;;;;;;16.80;11.10;;;;;;;0.70;93.16;99314.31;103226;1254;97718;-71
2023/11/23 08:43:58;;;;;;;14.60;10.40;;;;;;;0.74;93.20;99314.48;102416;1254;1003419;-71
2023/11/23 08:46:25;;;;;;;16.70;10.90;;;;;;;0.78;93.07;99312.73;103182;1254;107599;-70
2023/11/23 08:48:54;;;;;;;13.80;9.70;;;;;;;0.77;93.17;99308.29;103039;1254;138380;-71
2023/11/23 08:51:22;;;;;;;14.70;10.10;;;;;;;0.79;93.02;99303.65;103354;1260;107762;-70
2023/11/23 08:53:49;;;;;;;13.60;8.80;;;;;;;0.81;93.41;99304.32;103145;1260;97824;-70
2023/11/23 08:56:17;;;;;;;15.10;10.20;;;;;;;0.80;93.38;99298.33;103150;1260;138329;-71
2023/11/23 08:58:44;;;;;;;14.20;9.00;;;;;;;0.85;93.48;99297.27;102408;1254;1003287;-70
2023/11/23 09:01:10;;;;;;;14.50;9.80;;;;;;;0.87;93.94;99289.53;103149;1256;142361;-69
2023/11/23 09:03:37;;;;;;;12.80;9.20;;;;;;;0.90;94.18;99281.15;102429;1257;1003736;-70
2023/11/23 09:06:08;;;;;;;14.70;9.60;;;;;;;0.91;94.33;99272.58;102963;1257;101907;-71
2023/11/23 09:08:36;;;;;;;16.00;10.00;;;;;;;0.92;94.66;99255.63;103385;1256;1002388;-71
2023/11/23 09:11:03;;;;;;;15.50;9.40;;;;;;;0.93;94.86;99250.66;103150;1257;107662;-71
2023/11/23 09:13:31;;;;;;;12.80;8.90;;;;;;;0.96;94.68;99237.62;103181;1260;139995;-70
2023/11/23 09:15:59;;;;;;;15.50;9.70;;;;;;;0.99;95.01;99234.33;103931;1254;108473;-70
2023/11/23 09:18:26;;;;;;;13.70;10.00;;;;;;;1.04;95.17;99221.25;103970;1254;97810;-70
2023/11/23 09:20:54;;;;;;;18.80;10.70;;;;;;;1.08;94.81;99216.27;102998;1259;137551;-70
2023/11/23 09:23:24;;;;;;;17.90;11.40;;;;;;;1.10;94.85;99222.92;103273;1257;107902;-70
2023/11/23 09:25:51;;;;;;;16.70;12.40;;;;;;;1.11;94.91;99212.98;102883;1260;137823;-70
2023/11/23 09:28:19;;;;;;;18.90;12.10;;;;;;;1.13;95.04;99203.89;103298;1254;108701;-69
2023/11/23 09:30:46;;;;;;;18.10;11.70;;;;;;;1.12;95.21;99194.83;102987;1254;97714;-70
2023/11/23 09:33:13;;;;;;;16.90;11.50;;;;;;;1.15;95.03;99183.83;102233;1259;1002962;-69
2023/11/23 09:35:42;;;;;;;16.60;11.30;;;;;;;1.16;95.47;99184.50;102219;1256;1003093;-69
2023/11/23 09:38:10;;;;;;;19.20;11.90;;;;;;;1.16;95.44;99171.31;103073;1257;138550;-70
2023/11/23 09:40:37;;;;;;;16.50;11.10;;;;;;;1.21;95.48;99176.21;103219;1258;107489;-68
2023/11/23 09:43:04;;;;;;;16.10;11.20;;;;;;;1.24;95.64;99172.93;103145;1257;138622;-70
2023/11/23 09:45:32;;;;;;;19.50;11.30;;;;;;;1.26;95.51;99167.78;103235;1259;111439;-71
2023/11/23 09:48:00;;;;;;;15.50;10.90;;;;;;;1.30;95.89;99157.13;103162;1257;107988;-75
2023/11/23 09:50:28;;;;;;;18.10;11.50;;;;;;;1.34;95.82;99150.39;103099;1257;138687;-73
2023/11/23 09:53:04;;;;;;;16.30;11.40;;;;;;;1.37;95.81;99151.04;103232;1259;107583;-73
2023/11/23 09:55:31;;;;;;;16.90;11.40;;;;;;;1.39;95.84;99147.92;102213;1259;1003023;-73
2023/11/23 09:57:58;;;;;;;21.20;11.80;;;;;;;1.42;95.61;99160.23;103295;1254;111857;-73
2023/11/23 10:00:25;;;;;;;18.80;11.50;;;;;;;1.46;95.57;99149.39;103268;1260;107825;-73
2023/11/23 10:02:55;;;;;;;17.30;11.70;;;;;;;1.49;95.90;99140.77;103170;1254;138526;-73
2023/11/23 10:05:23;;;;;;;19.40;12.20;;;;;;;1.53;96.04;99135.59;103038;1254;108063;-73
2023/11/23 10:07:53;;;;;;;18.30;12.20;;;;;;;1.59;95.92;99116.82;103467;1257;138518;-73
2023/11/23 10:10:21;;;;;;;17.40;12.20;;;;;;;1.63;96.07;99115.91;103344;1254;111730;-73
2023/11/23 10:12:49;;;;;;;20.30;12.40;;;;;;;1.68;96.10;99108.48;103153;1254;109001;-72
2023/11/23 10:15:16;;;;;;;18.10;12.80;;;;;;;1.71;96.42;99104.14;103193;1254;97919;-73
2023/11/23 10:17:43;;;;;;;19.40;13.00;;;;;;;1.73;96.24;99100.34;103165;1257;108212;-74
2023/11/23 10:20:14;;;;;;;16.70;11.80;;;;;;;1.78;96.41;99090.16;103316;1254;138567;-73
2023/11/23 10:22:45;;;;;;;20.20;12.70;;;;;;;1.81;96.77;99083.27;103649;1257;111076;-73
2023/11/23 10:25:21;;;;;;;20.30;13.40;;;;;;;1.85;96.84;99076.86;102976;1257;139825;-73
2023/11/23 10:27:48;;;;;;;19.80;13.10;;;;;;;1.90;96.74;99074.05;102512;1259;1002899;-72
2023/11/23 10:30:16;;;;;;;18.90;12.50;;;;;;;1.92;96.71;99066.30;103210;1254;108458;-73
2023/11/23 10:32:43;;;;;;;20.80;13.60;;;;;;;1.98;96.97;99065.69;103509;1254;139084;-72
2023/11/23 10:35:12;;;;;;;18.90;13.20;;;;;;;2.03;97.01;99066.45;102536;1258;1002958;-72
2023/11/23 10:37:42;;;;;;;20.70;12.70;;;;;;;2.10;97.08;99062.55;103159;1254;138644;-72
2023/11/23 10:40:12;;;;;;;18.60;12.00;;;;;;;2.15;97.09;99053.90;103184;1259;98323;-73
2023/11/23 10:42:41;;;;;;;18.40;12.20;;;;;;;2.22;96.93;99061.49;103437;1257;107189;-69
2023/11/23 10:45:12;;;;;;;18.00;12.20;;;;;;;2.29;97.07;99047.48;103010;1254;139676;-70
2023/11/23 10:47:41;;;;;;;19.50;12.30;;;;;;;2.34;97.12;99044.30;103485;1254;110607;-69
2023/11/23 10:50:10;;;;;;;21.30;12.80;;;;;;;2.37;96.95;99039.80;103079;1256;139478;-70
2023/11/23 10:52:39;;;;;;;19.50;13.20;;;;;;;2.40;96.66;99038.55;103845;1254;98037;-70
2023/11/23 10:55:07;;;;;;;19.80;12.40;;;;;;;2.41;96.64;99033.55;103142;1255;139569;-72
2023/11/23 10:57:35;;;;;;;19.40;12.60;;;;;;;2.41;96.77;99026.33;103505;1254;97810;-71
2023/11/23 11:00:07;;;;;;;20.60;13.00;;;;;;;2.42;96.73;99035.08;103654;1254;110894;-72
2023/11/23 11:02:34;;;;;;;19.20;12.60;;;;;;;2.45;97.00;99025.06;103311;1254;138596;-72
2023/11/23 11:05:03;;;;;;;19.20;12.50;;;;;;;2.48;97.11;99024.65;102625;1254;1003012;-71